createdAt,value
2022-10-16T00:00:04.139Z,99459.44
2022-10-16T00:01:13.021Z,99457.75
2022-10-16T00:02:26.981Z,99455.22
2022-10-16T00:03:42.578Z,99460.03
2022-10-16T00:04:52.541Z,99457.19
2022-10-16T00:06:02.879Z,99461.72
2022-10-16T00:07:06.543Z,99461.41
2022-10-16T00:08:15.730Z,99462.25
2022-10-16T00:09:20.125Z,99465.78
2022-10-16T00:10:24.660Z,99460.56
2022-10-16T00:11:40.067Z,99463.25
2022-10-16T00:12:45.650Z,99463.25
2022-10-16T00:14:15.009Z,99466.78
2022-10-16T00:15:19.018Z,99464.38
2022-10-16T00:16:23.329Z,99464.66
2022-10-16T00:17:30.029Z,99469.88
2022-10-16T00:18:34.936Z,99469.88
2022-10-16T00:19:41.899Z,99467.31
2022-10-16T00:20:51.586Z,99479.72
2022-10-16T00:21:58.315Z,99473.66
2022-10-16T00:23:09.390Z,99466.91
2022-10-16T00:24:13.180Z,99474.34
2022-10-16T00:25:17.829Z,99484.81
2022-10-16T00:26:22.783Z,99485.78
2022-10-16T00:27:26.382Z,99482.25
2022-10-16T00:28:30.413Z,99486.75
2022-10-16T00:29:35.724Z,99488.03
2022-10-16T00:30:43.256Z,99485.34
2022-10-16T00:31:46.846Z,99489.88
2022-10-16T00:32:50.422Z,99481.81
2022-10-16T00:33:54.193Z,99496.91
2022-10-16T00:34:57.922Z,99490.84
2022-10-16T00:36:04.274Z,99485.34
2022-10-16T00:37:08.487Z,99483.66
2022-10-16T00:38:12.709Z,99489.03
2022-10-16T00:39:17.749Z,99492.66
2022-10-16T00:40:26.222Z,99493.53
2022-10-16T00:41:31.141Z,99488.16
2022-10-16T00:42:39.019Z,99493.38
2022-10-16T00:44:01.675Z,99500.56
2022-10-16T00:45:07.160Z,99490.72
2022-10-16T00:46:43.470Z,99500.56
2022-10-16T00:47:52.782Z,99497.06
2022-10-16T00:49:18.019Z,99494.47
2022-10-16T00:50:32.796Z,99498.00
2022-10-16T00:51:45.421Z,99510.44
2022-10-16T00:52:55.302Z,99504.25
2022-10-16T00:54:00.728Z,99502.41
2022-10-16T00:55:09.797Z,99501.56
2022-10-16T00:56:15.073Z,99495.22
2022-10-16T00:57:19.504Z,99500.56
2022-10-16T00:58:23.552Z,99496.91
2022-10-16T00:59:47.051Z,99497.75
2022-10-16T01:00:51.539Z,99502.25
2022-10-16T01:01:58.026Z,99496.91
2022-10-16T01:03:26.085Z,99496.06
2022-10-16T01:04:39.139Z,99501.41
2022-10-16T01:06:03.616Z,99507.63
2022-10-16T01:07:26.955Z,99512.97
2022-10-16T01:09:10.499Z,99512.13
2022-10-16T01:10:42.894Z,99509.47
2022-10-16T01:12:05.667Z,99500.81
2022-10-16T01:13:23.437Z,99507.16
2022-10-16T01:14:48.029Z,99506.31
2022-10-16T01:16:24.609Z,99503.78
2022-10-16T01:17:54.415Z,99506.47
2022-10-16T01:19:13.940Z,99505.63
2022-10-16T01:20:27.220Z,99503.09
2022-10-16T01:21:40.376Z,99507.69
2022-10-16T01:23:21.766Z,99502.22
2022-10-16T01:24:50.711Z,99504.03
2022-10-16T01:26:17.226Z,99502.34
2022-10-16T01:27:31.940Z,99500.50
2022-10-16T01:29:11.577Z,99500.50
2022-10-16T01:30:32.156Z,99499.81
2022-10-16T01:31:42.640Z,99508.84
2022-10-16T01:33:22.378Z,99507.16
2022-10-16T01:34:38.505Z,99505.31
2022-10-16T01:35:53.561Z,99503.63
2022-10-16T01:37:09.540Z,99507.00
2022-10-16T01:38:39.219Z,99507.84
2022-10-16T01:39:48.686Z,99511.38
2022-10-16T01:41:02.527Z,99507.56
2022-10-16T01:42:17.261Z,99515.75
2022-10-16T01:43:28.216Z,99505.88
2022-10-16T01:44:37.605Z,99515.75
2022-10-16T01:45:47.953Z,99511.22
2022-10-16T01:46:55.236Z,99507.56
2022-10-16T01:48:05.278Z,99521.94
2022-10-16T01:49:13.878Z,99517.44
2022-10-16T01:50:22.735Z,99511.13
2022-10-16T01:51:30.983Z,99512.06
2022-10-16T01:52:46.443Z,99523.63
2022-10-16T01:53:58.702Z,99525.47
2022-10-16T01:55:08.331Z,99526.44
2022-10-16T01:56:17.632Z,99520.25
2022-10-16T01:57:25.524Z,99531.81
2022-10-16T01:58:36.002Z,99518.69
2022-10-16T01:59:49.379Z,99515.19
2022-10-16T02:05:19.122Z,99522.47
2022-10-16T02:06:29.319Z,99526.03
2022-10-16T02:07:44.842Z,99529.56
2022-10-16T02:09:37.467Z,99520.91
2022-10-16T02:11:07.740Z,99529.22
2022-10-16T02:12:29.461Z,99532.03
2022-10-16T02:13:51.350Z,99528.63
2022-10-16T02:14:55.870Z,99528.63
2022-10-16T02:16:00.117Z,99529.47
2022-10-16T02:17:15.813Z,99524.97
2022-10-16T02:18:21.451Z,99527.78
2022-10-16T02:19:25.540Z,99523.41
2022-10-16T02:20:51.735Z,99525.63
2022-10-16T02:22:04.220Z,99521.88
2022-10-16T02:23:16.129Z,99527.31
2022-10-16T02:24:38.887Z,99522.84
2022-10-16T02:26:50.794Z,99526.63
2022-10-16T02:28:14.424Z,99524.09
2022-10-16T02:29:24.676Z,99525.91
2022-10-16T02:30:39.568Z,99523.50
2022-10-16T02:31:49.156Z,99532.97
2022-10-16T02:32:59.251Z,99529.56
2022-10-16T02:34:13.647Z,99526.06
2022-10-16T02:35:23.538Z,99535.63
2022-10-16T02:36:34.554Z,99525.91
2022-10-16T02:37:44.667Z,99532.25
2022-10-16T02:38:58.210Z,99535.06
2022-10-16T02:40:10.709Z,99526.16
2022-10-16T02:41:25.521Z,99529.97
2022-10-16T02:42:39.916Z,99528.13
2022-10-16T02:43:44.033Z,99525.47
2022-10-16T02:44:49.043Z,99526.44
2022-10-16T02:46:01.028Z,99538.00
2022-10-16T02:47:08.689Z,99530.81
2022-10-16T02:48:21.747Z,99534.59
2022-10-16T02:49:38.369Z,99526.56
2022-10-16T02:50:49.893Z,99523.06
2022-10-16T02:51:57.336Z,99522.31
2022-10-16T02:53:03.656Z,99533.91
2022-10-16T02:54:14.198Z,99522.31
2022-10-16T02:55:22.383Z,99530.34
2022-10-16T02:56:29.162Z,99527.09
2022-10-16T02:57:52.144Z,99529.19
2022-10-16T02:58:59.673Z,99529.22
2022-10-16T03:00:06.306Z,99530.72
2022-10-16T03:01:14.920Z,99529.59
2022-10-16T03:02:30.230Z,99539.16
2022-10-16T03:05:03.299Z,99535.66
2022-10-16T03:06:07.409Z,99546.50
2022-10-16T03:07:14.503Z,99537.47
2022-10-16T03:08:18.938Z,99539.31
2022-10-16T03:09:22.527Z,99537.47
2022-10-16T03:10:26.465Z,99539.16
2022-10-16T03:11:30.323Z,99536.50
2022-10-16T03:12:34.325Z,99535.78
2022-10-16T03:13:38.306Z,99530.44
2022-10-16T03:14:42.090Z,99527.75
2022-10-16T03:15:45.814Z,99539.44
2022-10-16T03:16:49.793Z,99533.38
2022-10-16T03:17:53.628Z,99531.41
2022-10-16T03:18:57.436Z,99528.75
2022-10-16T03:20:01.193Z,99530.72
2022-10-16T03:21:05.055Z,99535.94
2022-10-16T03:22:08.824Z,99534.09
2022-10-16T03:23:12.973Z,99532.25
2022-10-16T03:24:16.778Z,99535.09
2022-10-16T03:25:20.474Z,99528.88
2022-10-16T03:26:24.325Z,99525.72
2022-10-16T03:27:28.598Z,99531.06
2022-10-16T03:28:32.712Z,99532.03
2022-10-16T03:29:36.621Z,99540.91
2022-10-16T03:30:40.818Z,99537.41
2022-10-16T03:31:44.775Z,99537.63
2022-10-16T03:32:48.640Z,99544.94
2022-10-16T03:33:52.366Z,99545.78
2022-10-16T03:34:57.871Z,99545.78
2022-10-16T03:36:01.422Z,99548.47
2022-10-16T03:37:04.978Z,99537.78
2022-10-16T03:38:08.776Z,99550.16
2022-10-16T03:39:12.493Z,99552.84
2022-10-16T03:40:17.028Z,99551.84
2022-10-16T03:41:20.907Z,99555.50
2022-10-16T03:42:25.616Z,99555.50
2022-10-16T03:43:29.393Z,99553.97
2022-10-16T03:44:33.577Z,99564.66
2022-10-16T03:45:37.456Z,99559.31
2022-10-16T03:46:41.654Z,99561.28
2022-10-16T03:47:45.921Z,99564.91
2022-10-16T03:48:49.897Z,99569.31
2022-10-16T03:49:53.815Z,99563.09
2022-10-16T03:50:57.864Z,99567.72
2022-10-16T03:52:01.605Z,99570.25
2022-10-16T03:53:05.564Z,99571.13
2022-10-16T03:54:11.521Z,99573.81
2022-10-16T03:55:15.486Z,99578.41
2022-10-16T03:56:19.296Z,99577.84
2022-10-16T03:57:23.564Z,99566.28
2022-10-16T03:58:27.892Z,99568.22
2022-10-16T03:59:32.279Z,99579.31
2022-10-16T04:00:36.326Z,99578.47
2022-10-16T04:01:40.464Z,99574.81
2022-10-16T04:02:44.097Z,99578.59
2022-10-16T04:03:48.268Z,99579.97
2022-10-16T04:04:52.692Z,99577.16
2022-10-16T04:05:56.584Z,99586.03
2022-10-16T04:07:00.431Z,99578.84
2022-10-16T04:08:04.732Z,99580.41
2022-10-16T04:09:08.585Z,99591.09
2022-10-16T04:10:12.600Z,99586.50
2022-10-16T04:11:16.397Z,99583.69
2022-10-16T04:12:21.391Z,99582.84
2022-10-16T04:13:25.704Z,99588.06
2022-10-16T04:14:29.618Z,99595.09
2022-10-16T04:15:36.333Z,99582.59
2022-10-16T04:16:39.903Z,99592.44
2022-10-16T04:17:44.209Z,99591.34
2022-10-16T04:18:47.844Z,99588.78
2022-10-16T04:19:55.046Z,99589.63
2022-10-16T04:21:03.838Z,99594.97
2022-10-16T04:22:07.490Z,99583.44
2022-10-16T04:23:11.682Z,99584.28
2022-10-16T04:24:15.327Z,99584.28
2022-10-16T04:25:19.363Z,99587.69
2022-10-16T04:26:23.428Z,99587.69
2022-10-16T04:27:27.310Z,99583.19
2022-10-16T04:28:32.931Z,99594.97
2022-10-16T04:29:36.697Z,99589.88
2022-10-16T04:30:41.175Z,99591.72
2022-10-16T04:31:44.808Z,99589.03
2022-10-16T04:32:52.980Z,99596.47
2022-10-16T04:33:57.097Z,99596.00
2022-10-16T04:35:01.040Z,99592.34
2022-10-16T04:36:08.376Z,99594.19
2022-10-16T04:37:12.118Z,99593.56
2022-10-16T04:38:15.958Z,99595.25
2022-10-16T04:39:20.006Z,99591.75
2022-10-16T04:40:23.665Z,99595.41
2022-10-16T04:41:27.506Z,99591.88
2022-10-16T04:42:31.452Z,99591.88
2022-10-16T04:43:35.966Z,99588.50
2022-10-16T04:44:39.969Z,99594.81
2022-10-16T04:45:43.765Z,99594.81
2022-10-16T04:46:47.853Z,99591.31
2022-10-16T04:47:51.456Z,99598.47
2022-10-16T04:48:55.081Z,99596.03
2022-10-16T04:50:00.379Z,99596.88
2022-10-16T04:51:05.070Z,99601.78
2022-10-16T04:52:10.744Z,99600.81
2022-10-16T04:53:14.976Z,99598.22
2022-10-16T04:54:18.537Z,99602.88
2022-10-16T04:55:22.772Z,99601.31
2022-10-16T04:56:26.380Z,99594.13
2022-10-16T04:57:30.844Z,99597.91
2022-10-16T04:58:34.681Z,99602.38
2022-10-16T04:59:38.266Z,99604.22
2022-10-16T05:00:41.917Z,99606.88
2022-10-16T05:01:46.227Z,99605.06
2022-10-16T05:02:52.158Z,99611.50
2022-10-16T05:03:55.772Z,99610.94
2022-10-16T05:04:59.401Z,99610.19
2022-10-16T05:06:05.422Z,99615.53
2022-10-16T05:07:09.491Z,99609.34
2022-10-16T05:08:15.700Z,99612.41
2022-10-16T05:09:19.914Z,99611.56
2022-10-16T05:10:23.748Z,99610.69
2022-10-16T05:11:27.775Z,99606.31
2022-10-16T05:12:32.629Z,99609.25
2022-10-16T05:13:36.530Z,99618.94
2022-10-16T05:14:40.293Z,99618.22
2022-10-16T05:15:49.853Z,99615.56
2022-10-16T05:16:54.013Z,99610.22
2022-10-16T05:17:57.912Z,99608.63
2022-10-16T05:19:26.173Z,99609.38
2022-10-16T05:20:25.776Z,99595.25
2022-10-16T05:21:29.625Z,99600.59
2022-10-16T05:22:33.819Z,99602.34
2022-10-16T05:23:37.618Z,99603.19
2022-10-16T05:24:41.716Z,99607.53
2022-10-16T05:25:59.511Z,99609.25
2022-10-16T05:27:03.303Z,99610.22
2022-10-16T05:28:07.102Z,99606.81
2022-10-16T05:29:13.234Z,99610.34
2022-10-16T05:30:18.725Z,99620.06
2022-10-16T05:31:23.631Z,99619.31
2022-10-16T05:32:27.491Z,99620.53
2022-10-16T05:33:31.416Z,99620.41
2022-10-16T05:34:35.254Z,99623.09
2022-10-16T05:35:39.112Z,99629.28
2022-10-16T05:36:43.200Z,99627.31
2022-10-16T05:37:47.761Z,99625.75
2022-10-16T05:38:53.247Z,99628.22
2022-10-16T05:39:57.233Z,99629.06
2022-10-16T05:41:00.965Z,99633.44
2022-10-16T05:42:06.293Z,99633.16
2022-10-16T05:43:11.800Z,99629.50
2022-10-16T05:44:16.522Z,99628.44
2022-10-16T05:45:20.312Z,99627.31
2022-10-16T05:46:24.048Z,99634.22
2022-10-16T05:47:28.722Z,99629.75
2022-10-16T05:48:34.674Z,99628.66
2022-10-16T05:49:41.245Z,99624.03
2022-10-16T05:50:45.318Z,99626.56
2022-10-16T05:51:49.334Z,99630.00
2022-10-16T05:52:53.317Z,99630.84
2022-10-16T05:53:56.863Z,99628.03
2022-10-16T05:55:01.094Z,99627.91
2022-10-16T05:56:06.695Z,99637.50
2022-10-16T05:57:12.877Z,99632.97
2022-10-16T05:58:16.598Z,99628.53
2022-10-16T05:59:20.323Z,99625.72
2022-10-16T06:00:24.151Z,99630.78
2022-10-16T06:01:27.982Z,99627.16
2022-10-16T06:02:32.013Z,99624.38
2022-10-16T06:03:36.647Z,99628.84
2022-10-16T06:04:40.415Z,99623.38
2022-10-16T06:05:44.319Z,99627.63
2022-10-16T06:06:48.358Z,99621.28
2022-10-16T06:07:51.858Z,99626.41
2022-10-16T06:08:57.388Z,99627.13
2022-10-16T06:10:01.126Z,99635.88
2022-10-16T06:11:08.816Z,99631.22
2022-10-16T06:12:13.011Z,99639.16
2022-10-16T06:13:17.536Z,99645.09
2022-10-16T06:14:21.032Z,99648.59
2022-10-16T06:15:24.868Z,99654.56
2022-10-16T06:16:29.189Z,99658.94
2022-10-16T06:17:33.278Z,99658.53
2022-10-16T06:18:37.258Z,99663.03
2022-10-16T06:19:41.499Z,99665.47
2022-10-16T06:20:45.141Z,99661.81
2022-10-16T06:21:49.255Z,99660.13
2022-10-16T06:22:52.761Z,99668.72
2022-10-16T06:23:58.005Z,99666.66
2022-10-16T06:25:01.532Z,99670.09
2022-10-16T06:26:15.062Z,99663.63
2022-10-16T06:27:18.825Z,99668.59
2022-10-16T06:28:22.448Z,99670.06
2022-10-16T06:29:26.137Z,99670.63
2022-10-16T06:30:29.681Z,99671.97
2022-10-16T06:31:34.503Z,99673.53
2022-10-16T06:32:38.551Z,99670.59
2022-10-16T06:33:42.812Z,99678.22
2022-10-16T06:34:46.600Z,99682.59
2022-10-16T06:35:50.368Z,99686.47
2022-10-16T06:36:54.671Z,99687.19
2022-10-16T06:37:58.604Z,99687.63
2022-10-16T06:39:02.511Z,99682.88
2022-10-16T06:40:07.430Z,99688.28
2022-10-16T06:41:21.998Z,99685.81
2022-10-16T06:42:26.373Z,99683.72
2022-10-16T06:43:34.545Z,99693.66
2022-10-16T06:44:38.484Z,99694.63
2022-10-16T06:45:42.033Z,99690.59
2022-10-16T06:46:46.036Z,99699.47
2022-10-16T06:47:49.842Z,99706.56
2022-10-16T06:48:57.160Z,99698.84
2022-10-16T06:50:01.096Z,99703.50
2022-10-16T06:51:19.511Z,99710.38
2022-10-16T06:52:23.678Z,99702.66
2022-10-16T06:53:39.638Z,99709.31
2022-10-16T06:54:48.094Z,99718.38
2022-10-16T06:55:53.090Z,99711.34
2022-10-16T06:56:57.110Z,99705.31
2022-10-16T06:58:00.768Z,99717.34
2022-10-16T06:59:05.793Z,99718.47
2022-10-16T07:00:11.031Z,99713.25
2022-10-16T07:01:22.686Z,99716.94
2022-10-16T07:02:26.761Z,99707.22
2022-10-16T07:03:31.010Z,99712.19
2022-10-16T07:04:34.956Z,99712.59
2022-10-16T07:05:44.033Z,99717.41
2022-10-16T07:06:48.560Z,99707.28
2022-10-16T07:07:52.649Z,99713.78
2022-10-16T07:08:57.036Z,99716.03
2022-10-16T07:10:00.929Z,99704.47
2022-10-16T07:11:09.565Z,99706.59
2022-10-16T07:12:13.822Z,99704.06
2022-10-16T07:13:17.912Z,99706.72
2022-10-16T07:14:23.299Z,99706.72
2022-10-16T07:15:28.028Z,99708.69
2022-10-16T07:16:34.085Z,99706.44
2022-10-16T07:17:37.991Z,99709.72
2022-10-16T07:18:46.054Z,99711.84
2022-10-16T07:19:50.112Z,99714.09
2022-10-16T07:20:54.717Z,99709.00
2022-10-16T07:21:58.681Z,99708.84
2022-10-16T07:23:02.729Z,99712.09
2022-10-16T07:24:11.912Z,99710.81
2022-10-16T07:25:16.155Z,99719.16
2022-10-16T07:26:20.227Z,99713.34
2022-10-16T07:27:25.285Z,99712.75
2022-10-16T07:28:30.349Z,99715.19
2022-10-16T07:29:34.354Z,99720.66
2022-10-16T07:30:38.351Z,99715.28
2022-10-16T07:31:43.684Z,99716.78
2022-10-16T07:32:48.054Z,99720.66
2022-10-16T07:33:52.842Z,99717.50
2022-10-16T07:34:56.882Z,99713.25
2022-10-16T07:36:00.703Z,99706.31
2022-10-16T07:37:04.312Z,99710.16
2022-10-16T07:38:08.232Z,99717.78
2022-10-16T07:39:11.813Z,99712.78
2022-10-16T07:40:15.783Z,99712.81
2022-10-16T07:41:21.113Z,99713.50
2022-10-16T07:42:25.298Z,99714.19
2022-10-16T07:43:29.441Z,99712.53
2022-10-16T07:44:33.186Z,99714.09
2022-10-16T07:45:37.667Z,99721.00
2022-10-16T07:46:53.542Z,99722.00
2022-10-16T07:48:00.413Z,99721.16
2022-10-16T07:49:08.192Z,99714.94
2022-10-16T07:50:19.189Z,99720.31
2022-10-16T07:51:28.781Z,99714.38
2022-10-16T07:52:34.616Z,99716.41
2022-10-16T07:53:41.421Z,99719.75
2022-10-16T07:54:49.434Z,99721.59
2022-10-16T07:56:04.602Z,99722.41
2022-10-16T07:57:11.818Z,99721.56
2022-10-16T07:58:19.503Z,99720.91
2022-10-16T07:59:27.333Z,99734.28
2022-10-16T08:00:35.643Z,99724.88
2022-10-16T08:01:43.393Z,99726.69
2022-10-16T08:02:51.803Z,99728.00
2022-10-16T08:05:12.699Z,99729.09
2022-10-16T08:06:19.737Z,99730.63
2022-10-16T08:07:58.274Z,99731.84
2022-10-16T08:09:09.773Z,99728.13
2022-10-16T08:10:20.275Z,99725.97
2022-10-16T08:11:24.708Z,99728.88
2022-10-16T08:12:29.693Z,99730.56
2022-10-16T08:13:34.024Z,99728.53
2022-10-16T08:14:37.796Z,99726.38
2022-10-16T08:15:41.899Z,99738.44
2022-10-16T08:16:45.838Z,99734.22
2022-10-16T08:18:05.575Z,99732.63
2022-10-16T08:19:09.674Z,99735.00
2022-10-16T08:20:13.761Z,99727.06
2022-10-16T08:21:21.864Z,99736.38
2022-10-16T08:22:29.349Z,99735.75
2022-10-16T08:23:37.906Z,99733.41
2022-10-16T08:24:42.381Z,99740.16
2022-10-16T08:25:46.012Z,99739.94
2022-10-16T08:26:49.506Z,99736.47
2022-10-16T08:27:53.416Z,99729.53
2022-10-16T08:28:57.705Z,99731.91
2022-10-16T08:30:01.464Z,99732.59
2022-10-16T08:32:18.990Z,99726.25
2022-10-16T08:33:22.684Z,99727.22
2022-10-16T08:34:26.218Z,99724.50
2022-10-16T08:35:30.500Z,99733.38
2022-10-16T08:36:34.311Z,99727.94
2022-10-16T08:37:39.357Z,99736.69
2022-10-16T08:38:43.933Z,99736.50
2022-10-16T08:39:47.644Z,99739.06
2022-10-16T08:40:53.726Z,99734.28
2022-10-16T08:42:27.418Z,99747.81
2022-10-16T08:44:25.060Z,99738.53
2022-10-16T08:46:05.976Z,99739.69
2022-10-16T08:47:35.669Z,99733.56
2022-10-16T08:48:56.405Z,99743.25
2022-10-16T08:50:11.211Z,99745.13
2022-10-16T08:51:49.380Z,99736.44
2022-10-16T08:52:53.542Z,99747.13
2022-10-16T08:54:00.550Z,99739.38
2022-10-16T08:55:06.455Z,99744.00
2022-10-16T08:56:10.491Z,99744.84
2022-10-16T08:57:28.942Z,99740.38
2022-10-16T08:58:32.945Z,99746.50
2022-10-16T08:59:39.195Z,99739.97
2022-10-16T09:00:48.085Z,99741.03
2022-10-16T09:01:53.902Z,99744.44
2022-10-16T09:03:27.259Z,99742.34
2022-10-16T09:05:07.820Z,99741.94
2022-10-16T09:06:55.067Z,99737.53
2022-10-16T09:08:35.173Z,99743.91
2022-10-16T09:09:50.519Z,99746.63
2022-10-16T09:11:10.017Z,99744.94
2022-10-16T09:12:38.802Z,99748.50
2022-10-16T09:14:23.945Z,99750.53
2022-10-16T09:15:40.759Z,99751.97
2022-10-16T09:16:55.831Z,99749.00
2022-10-16T09:18:16.792Z,99754.31
2022-10-16T09:19:43.132Z,99752.88
2022-10-16T09:21:11.736Z,99753.72
2022-10-16T09:22:23.793Z,99754.47
2022-10-16T09:23:37.831Z,99765.63
2022-10-16T09:24:41.641Z,99756.88
2022-10-16T09:25:51.305Z,99759.97
2022-10-16T09:26:54.947Z,99767.13
2022-10-16T09:27:58.582Z,99762.38
2022-10-16T09:29:04.060Z,99760.25
2022-10-16T09:30:18.543Z,99765.69
2022-10-16T09:31:24.288Z,99757.91
2022-10-16T09:32:30.314Z,99762.84
2022-10-16T09:33:42.508Z,99761.72
2022-10-16T09:34:55.344Z,99761.63
2022-10-16T09:36:00.705Z,99759.00
2022-10-16T09:37:15.710Z,99762.34
2022-10-16T09:38:33.132Z,99765.44
2022-10-16T09:40:07.471Z,99763.22
2022-10-16T09:41:22.364Z,99771.25
2022-10-16T09:42:36.131Z,99759.53
2022-10-16T09:43:59.561Z,99766.03
2022-10-16T09:45:04.931Z,99769.47
2022-10-16T09:46:30.851Z,99767.47
2022-10-16T09:47:43.658Z,99769.59
2022-10-16T09:48:53.048Z,99760.13
2022-10-16T09:50:27.485Z,99768.97
2022-10-16T09:51:39.019Z,99769.81
2022-10-16T09:52:42.665Z,99770.34
2022-10-16T09:53:49.350Z,99761.91
2022-10-16T09:54:59.972Z,99764.53
2022-10-16T09:56:10.316Z,99759.44
2022-10-16T09:57:17.869Z,99769.63
2022-10-16T09:58:25.987Z,99773.38
2022-10-16T09:59:32.145Z,99768.47
2022-10-16T10:00:36.192Z,99766.28
2022-10-16T10:01:43.006Z,99767.50
2022-10-16T10:02:48.222Z,99773.91
2022-10-16T10:04:01.717Z,99771.19
2022-10-16T10:05:20.401Z,99775.47
2022-10-16T10:06:39.317Z,99773.25
2022-10-16T10:07:50.428Z,99774.28
2022-10-16T10:09:20.863Z,99774.31
2022-10-16T10:10:43.736Z,99777.50
2022-10-16T10:12:06.071Z,99769.91
2022-10-16T10:13:26.924Z,99775.84
2022-10-16T10:14:44.222Z,99774.22
2022-10-16T10:15:49.929Z,99772.69
2022-10-16T10:17:06.060Z,99778.09
2022-10-16T10:18:25.034Z,99773.06
2022-10-16T10:19:32.775Z,99771.69
2022-10-16T10:20:39.939Z,99764.94
2022-10-16T10:21:43.768Z,99769.69
2022-10-16T10:22:47.391Z,99773.56
2022-10-16T10:24:00.929Z,99770.00
2022-10-16T10:25:13.596Z,99770.34
2022-10-16T10:26:28.859Z,99770.50
2022-10-16T10:27:58.731Z,99777.09
2022-10-16T10:29:50.405Z,99775.69
2022-10-16T10:30:58.452Z,99770.97
2022-10-16T10:32:50.408Z,99769.25
2022-10-16T10:34:15.400Z,99772.25
2022-10-16T10:35:34.919Z,99771.06
2022-10-16T10:36:43.409Z,99770.53
2022-10-16T10:38:22.362Z,99774.44
2022-10-16T10:39:53.209Z,99773.75
2022-10-16T10:41:37.127Z,99771.91
2022-10-16T10:43:07.236Z,99766.97
2022-10-16T10:44:22.991Z,99766.78
2022-10-16T10:45:48.868Z,99767.13
2022-10-16T10:47:36.989Z,99762.25
2022-10-16T10:49:18.890Z,99759.34
2022-10-16T10:50:44.260Z,99758.66
2022-10-16T10:52:12.481Z,99757.06
2022-10-16T10:53:57.301Z,99758.94
2022-10-16T10:55:36.136Z,99752.53
2022-10-16T10:57:03.874Z,99754.22
2022-10-16T10:58:55.710Z,99752.00
2022-10-16T11:00:50.037Z,99754.53
2022-10-16T11:02:47.189Z,99749.13
2022-10-16T11:04:31.065Z,99759.47
2022-10-16T11:05:48.807Z,99754.53
2022-10-16T11:07:02.504Z,99747.44
2022-10-16T11:08:28.900Z,99755.38
2022-10-16T11:09:58.517Z,99749.63
2022-10-16T11:11:43.728Z,99758.41
2022-10-16T11:13:15.436Z,99751.13
2022-10-16T11:14:50.965Z,99752.50
2022-10-16T11:16:04.491Z,99751.50
2022-10-16T11:17:30.703Z,99751.50
2022-10-16T11:19:14.859Z,99753.34
2022-10-16T11:20:51.306Z,99742.00
2022-10-16T11:22:05.002Z,99753.22
2022-10-16T11:23:46.667Z,99750.84
2022-10-16T11:25:25.019Z,99751.88
2022-10-16T11:26:38.199Z,99745.25
2022-10-16T11:28:12.369Z,99748.34
2022-10-16T11:29:30.752Z,99751.72
2022-10-16T11:31:16.651Z,99749.84
2022-10-16T11:32:52.047Z,99747.84
2022-10-16T11:34:28.930Z,99750.22
2022-10-16T11:36:16.272Z,99748.34
2022-10-16T11:37:44.726Z,99750.94
2022-10-16T11:39:27.742Z,99749.94
2022-10-16T11:42:48.737Z,99753.66
2022-10-16T11:44:21.822Z,99752.81
2022-10-16T11:46:12.982Z,99747.59
2022-10-16T11:47:58.674Z,99749.41
2022-10-16T11:49:49.666Z,99742.50
2022-10-16T11:51:37.025Z,99749.81
2022-10-16T11:53:14.511Z,99749.63
2022-10-16T11:54:49.594Z,99745.25
2022-10-16T11:55:53.574Z,99751.69
2022-10-16T11:57:10.192Z,99749.81
2022-10-16T11:58:54.052Z,99757.63
2022-10-16T12:00:12.143Z,99757.66
2022-10-16T12:01:48.933Z,99753.75
2022-10-16T12:03:49.299Z,99750.91
2022-10-16T12:05:10.496Z,99751.75
2022-10-16T12:06:34.238Z,99756.31
2022-10-16T12:07:54.291Z,99755.31
2022-10-16T12:09:04.157Z,99751.75
2022-10-16T12:10:29.072Z,99750.91
2022-10-16T12:11:40.022Z,99756.31
2022-10-16T12:12:46.469Z,99759.19
2022-10-16T12:13:51.064Z,99761.25
2022-10-16T12:15:22.484Z,99760.59
2022-10-16T12:16:57.943Z,99757.03
2022-10-16T12:18:03.635Z,99764.28
2022-10-16T12:19:18.535Z,99761.94
2022-10-16T12:20:37.622Z,99758.19
2022-10-16T12:21:43.106Z,99757.19
2022-10-16T12:23:02.794Z,99758.03
2022-10-16T12:24:07.603Z,99761.94
2022-10-16T12:25:37.266Z,99761.75
2022-10-16T12:26:46.902Z,99757.72
2022-10-16T12:28:02.289Z,99756.00
2022-10-16T12:29:45.583Z,99753.81
2022-10-16T12:31:02.592Z,99754.00
2022-10-16T12:32:45.687Z,99761.78
2022-10-16T12:34:04.461Z,99757.03
2022-10-16T12:35:24.173Z,99764.47
2022-10-16T12:36:35.561Z,99753.44
2022-10-16T12:37:40.182Z,99757.88
2022-10-16T12:38:56.376Z,99763.25
2022-10-16T12:40:13.056Z,99757.84
2022-10-16T12:41:35.826Z,99759.19
2022-10-16T12:42:40.264Z,99765.47
2022-10-16T12:43:48.968Z,99764.63
2022-10-16T12:44:53.620Z,99768.53
2022-10-16T12:46:23.702Z,99759.75
2022-10-16T12:47:33.715Z,99759.75
2022-10-16T12:48:48.599Z,99760.88
2022-10-16T12:50:01.449Z,99764.94
2022-10-16T12:51:25.859Z,99763.44
2022-10-16T12:52:39.375Z,99761.59
2022-10-16T12:53:43.306Z,99760.56
2022-10-16T12:54:48.197Z,99764.44
2022-10-16T12:56:25.516Z,99758.19
2022-10-16T12:58:11.550Z,99769.19
2022-10-16T12:59:45.529Z,99766.31
2022-10-16T13:01:11.207Z,99764.78
2022-10-16T13:02:43.353Z,99768.00
2022-10-16T13:04:33.054Z,99772.91
2022-10-16T13:05:54.790Z,99771.25
2022-10-16T13:07:51.594Z,99779.53
2022-10-16T13:09:13.386Z,99772.75
2022-10-16T13:10:40.871Z,99772.41
2022-10-16T13:12:41.988Z,99777.81
2022-10-16T13:14:03.207Z,99771.91
2022-10-16T13:15:21.857Z,99776.47
2022-10-16T13:16:52.705Z,99780.38
2022-10-16T13:18:22.658Z,99786.63
2022-10-16T13:20:05.960Z,99792.34
2022-10-16T13:21:43.980Z,99776.97
2022-10-16T13:23:30.381Z,99787.81
2022-10-16T13:25:13.808Z,99787.66
2022-10-16T13:27:02.685Z,99780.19
2022-10-16T13:28:14.448Z,99792.38
2022-10-16T13:29:22.222Z,99794.75
2022-10-16T13:30:46.140Z,99795.25
2022-10-16T13:31:51.407Z,99799.28
2022-10-16T13:33:27.096Z,99797.59
2022-10-16T13:34:36.713Z,99795.06
2022-10-16T13:36:01.605Z,99792.88
2022-10-16T13:37:26.649Z,99800.16
2022-10-16T13:38:38.772Z,99795.25
2022-10-16T13:39:47.932Z,99798.16
2022-10-16T13:41:07.575Z,99800.84
2022-10-16T13:42:35.632Z,99796.13
2022-10-16T13:43:57.257Z,99789.03
2022-10-16T13:45:29.070Z,99792.91
2022-10-16T13:46:38.527Z,99792.06
2022-10-16T13:47:43.274Z,99792.91
2022-10-16T13:49:04.458Z,99790.00
2022-10-16T13:50:21.896Z,99803.53
2022-10-16T13:51:27.743Z,99798.47
2022-10-16T13:52:33.972Z,99805.22
2022-10-16T13:53:38.841Z,99812.84
2022-10-16T13:54:48.644Z,99807.63
2022-10-16T13:56:03.054Z,99810.13
2022-10-16T13:57:26.864Z,99817.72
2022-10-16T13:58:36.061Z,99814.03
2022-10-16T13:59:59.023Z,99826.53
2022-10-16T14:01:32.496Z,99827.03
2022-10-16T14:02:41.421Z,99821.81
2022-10-16T14:03:54.748Z,99821.44
2022-10-16T14:04:59.908Z,99822.81
2022-10-16T14:06:15.047Z,99813.19
2022-10-16T14:07:35.058Z,99821.81
2022-10-16T14:09:22.929Z,99818.41
2022-10-16T14:10:35.875Z,99818.41
2022-10-16T14:12:09.768Z,99821.78
2022-10-16T14:14:00.739Z,99824.81
2022-10-16T14:15:06.997Z,99819.56
2022-10-16T14:16:20.196Z,99823.97
2022-10-16T14:17:32.306Z,99828.88
2022-10-16T14:18:44.537Z,99820.59
2022-10-16T14:20:08.225Z,99825.16
2022-10-16T14:21:18.299Z,99819.75
2022-10-16T14:22:36.630Z,99822.44
2022-10-16T14:23:42.377Z,99822.75
2022-10-16T14:24:46.049Z,99815.34
2022-10-16T14:25:50.069Z,99825.81
2022-10-16T14:26:56.123Z,99825.63